Time;durP1;ratioP1;P1;durP2;ratioP2;P2;SDS_P1;SDS_P2;PMS_P1;PMS_P2;Temp;Humidity;BMP_temperature;BMP_pressure;BME280_temperature;BME280_humidity;BME280_pressure;Samples;Min_cycle;Max_cycle;Signal;HPM_P1;HPM_P2
2021/08/02 00:00:17;;;;;;;3.28;1.58;;;22.30;59.00;;;;;;20742594;28;20026;-19
2021/08/02 00:10:18;;;;;;;6.72;1.50;;;22.20;58.90;;;;;;20741126;28;20056;-19
2021/08/02 00:20:31;;;;;;;7.72;1.55;;;22.20;59.00;;;;;;20740199;28;20089;-18
2021/08/02 00:30:33;;;;;;;5.78;1.50;;;22.20;59.00;;;;;;20739873;28;20112;-19
2021/08/02 00:40:45;;;;;;;3.67;1.25;;;22.20;59.00;;;;;;20742041;28;20511;-19
2021/08/02 00:50:49;;;;;;;3.55;1.02;;;22.20;59.50;;;;;;20762854;28;20041;-19
2021/08/02 01:00:51;;;;;;;4.53;1.75;;;22.20;59.00;;;;;;20769248;28;20033;-20
2021/08/02 01:10:59;;;;;;;2.78;1.10;;;22.20;59.00;;;;;;20782084;28;20038;-20
2021/08/02 01:21:12;;;;;;;2.70;1.03;;;22.10;59.00;;;;;;20754612;28;20061;-19
2021/08/02 01:31:13;;;;;;;2.92;1.42;;;22.20;59.00;;;;;;20743041;28;20038;-19
2021/08/02 01:41:14;;;;;;;5.17;1.17;;;22.20;59.00;;;;;;20746490;28;20033;-20
2021/08/02 01:51:21;;;;;;;2.63;0.90;;;22.20;59.10;;;;;;20754013;28;20825;-20
2021/08/02 02:01:24;;;;;;;3.08;0.95;;;22.10;59.00;;;;;;20751318;28;21044;-20
2021/08/02 02:11:26;;;;;;;2.85;1.00;;;22.10;59.00;;;;;;20750160;28;20042;-19
2021/08/02 02:21:29;;;;;;;3.70;0.95;;;22.10;59.00;;;;;;20749605;28;20494;-19
2021/08/02 02:31:31;;;;;;;9.02;1.83;;;22.10;59.10;;;;;;20749352;28;20045;-19
2021/08/02 02:41:32;;;;;;;3.85;1.23;;;22.10;59.10;;;;;;20747511;28;20080;-20
2021/08/02 02:51:33;;;;;;;1.95;0.85;;;22.10;59.10;;;;;;20729095;28;20040;-20
2021/08/02 03:01:45;;;;;;;1.77;1.08;;;22.10;59.10;;;;;;20760837;28;20481;-20
2021/08/02 03:11:47;;;;;;;3.92;1.35;;;22.10;59.10;;;;;;20779616;23;20518;-19
2021/08/02 03:21:48;;;;;;;2.13;0.68;;;22.00;59.00;;;;;;20760183;28;20060;-21
2021/08/02 03:31:59;;;;;;;3.33;1.02;;;22.10;59.10;;;;;;20750765;28;20383;-20
2021/08/02 03:42:01;;;;;;;2.03;0.80;;;22.00;59.10;;;;;;20756315;28;20038;-21
2021/08/02 03:52:02;;;;;;;2.42;0.90;;;22.00;59.00;;;;;;20759757;28;20046;-21
2021/08/02 04:02:03;;;;;;;2.13;0.68;;;22.00;59.00;;;;;;20758652;28;20437;-20
2021/08/02 04:12:04;;;;;;;4.30;0.80;;;22.00;59.00;;;;;;20743591;28;20406;-20
2021/08/02 04:22:05;;;;;;;3.05;1.17;;;22.00;59.00;;;;;;20752136;28;20469;-20
2021/08/02 04:32:05;;;;;;;1.20;0.68;;;22.00;59.10;;;;;;20741993;28;20430;-20
2021/08/02 04:42:06;;;;;;;1.50;0.73;;;22.00;59.10;;;;;;20739303;28;20030;-20
2021/08/02 04:52:07;;;;;;;2.57;1.03;;;22.00;59.00;;;;;;20738404;28;20104;-20
2021/08/02 05:02:07;;;;;;;3.13;1.30;;;22.00;59.00;;;;;;20734583;28;20469;-20
2021/08/02 05:12:08;;;;;;;2.88;1.15;;;22.00;59.00;;;;;;20736608;28;20052;-19
2021/08/02 05:22:09;;;;;;;3.75;0.90;;;22.00;58.90;;;;;;20738065;28;20034;-19
2021/08/02 05:32:09;;;;;;;4.70;0.77;;;21.90;58.80;;;;;;20669701;28;20069;-20
2021/08/02 05:42:10;;;;;;;2.90;0.73;;;22.00;58.80;;;;;;20721659;28;20053;-20
2021/08/02 05:52:10;;;;;;;7.07;0.85;;;21.90;58.80;;;;;;20754690;28;20486;-21
2021/08/02 06:02:11;;;;;;;21.23;3.65;;;21.90;58.70;;;;;;20763684;28;20042;-21
2021/08/02 06:12:11;;;;;;;11.32;2.00;;;21.90;58.10;;;;;;20750140;28;20081;-20
2021/08/02 06:22:12;;;;;;;18.38;2.65;;;21.80;57.70;;;;;;20748962;28;20371;-21
2021/08/02 06:32:13;;;;;;;10.65;1.77;;;21.80;57.50;;;;;;20750549;28;20042;-21
2021/08/02 06:42:14;;;;;;;6.05;1.75;;;21.80;57.20;;;;;;20751514;28;20125;-19
2021/08/02 06:52:14;;;;;;;4.88;0.90;;;21.80;56.70;;;;;;20746883;28;20103;-20
2021/08/02 07:02:15;;;;;;;4.07;1.00;;;21.80;56.20;;;;;;20745500;28;20045;-20
2021/08/02 07:12:15;;;;;;;7.18;1.27;;;21.70;56.00;;;;;;20743631;28;20110;-20
2021/08/02 07:22:16;;;;;;;10.07;1.45;;;21.80;55.80;;;;;;20742294;28;20030;-20
2021/08/02 07:32:17;;;;;;;17.70;2.20;;;21.90;56.20;;;;;;20743205;28;20076;-19
2021/08/02 07:42:17;;;;;;;12.48;1.63;;;21.80;56.50;;;;;;20743802;28;20038;-21
2021/08/02 07:52:18;;;;;;;12.15;1.27;;;21.90;56.40;;;;;;20739873;28;20195;-21
2021/08/02 08:02:18;;;;;;;10.18;1.25;;;22.00;56.20;;;;;;20738958;28;20029;-20
2021/08/02 08:12:19;;;;;;;9.32;1.10;;;22.00;55.90;;;;;;20737643;28;20100;-21
2021/08/02 08:22:19;;;;;;;6.00;1.20;;;22.10;55.60;;;;;;20738817;28;20030;-21
2021/08/02 08:32:20;;;;;;;6.00;0.90;;;22.00;55.10;;;;;;20738840;28;20112;-21
2021/08/02 08:42:20;;;;;;;2.05;0.63;;;22.10;54.90;;;;;;20736834;28;20493;-20
2021/08/02 08:52:21;;;;;;;7.30;1.27;;;22.10;54.70;;;;;;20747216;28;20030;-19
2021/08/02 09:02:27;;;;;;;17.25;3.22;;;22.10;54.50;;;;;;20754813;28;20079;-21
2021/08/02 09:12:27;;;;;;;21.60;2.30;;;22.00;54.40;;;;;;20754374;28;20100;-20
2021/08/02 09:22:31;;;;;;;28.65;3.58;;;22.10;54.60;;;;;;20753972;28;20037;-21
2021/08/02 09:32:31;;;;;;;16.27;2.88;;;22.10;54.50;;;;;;20754021;28;20462;-20
2021/08/02 09:42:32;;;;;;;13.38;1.17;;;22.00;54.70;;;;;;20750409;28;20065;-20
2021/08/02 09:52:33;;;;;;;7.82;1.40;;;22.10;54.70;;;;;;20751944;28;20580;-20
2021/08/02 10:02:33;;;;;;;8.95;1.20;;;22.10;54.40;;;;;;20753374;28;20129;-19
2021/08/02 10:12:46;;;;;;;6.67;1.27;;;22.10;54.50;;;;;;20754623;28;20053;-21
2021/08/02 10:22:47;;;;;;;5.15;0.88;;;22.10;54.50;;;;;;20751367;28;20850;-21
2021/08/02 10:32:53;;;;;;;11.68;1.33;;;22.10;54.40;;;;;;20753129;28;20033;-20
2021/08/02 10:42:53;;;;;;;4.88;0.88;;;22.10;54.40;;;;;;20750369;28;20099;-21
2021/08/02 10:52:55;;;;;;;5.37;1.30;;;22.10;54.60;;;;;;20748383;28;20050;-21
2021/08/02 11:02:57;;;;;;;3.85;0.88;;;22.10;54.50;;;;;;20746570;28;20037;-20
2021/08/02 11:12:58;;;;;;;8.93;1.02;;;22.10;54.60;;;;;;20743636;28;20037;-20
2021/08/02 11:22:58;;;;;;;8.83;1.50;;;22.10;54.50;;;;;;20759035;28;20504;-21
2021/08/02 11:32:59;;;;;;;2.03;0.70;;;22.20;54.30;;;;;;20744712;28;20121;-21
2021/08/02 11:43:04;;;;;;;10.75;1.77;;;22.10;54.40;;;;;;20744043;28;20038;-20
2021/08/02 11:53:05;;;;;;;9.70;1.00;;;22.10;54.50;;;;;;20742829;28;20034;-20
2021/08/02 12:03:08;;;;;;;4.40;1.02;;;22.20;54.10;;;;;;20741486;28;20522;-19
2021/08/02 12:13:13;;;;;;;4.75;0.75;;;22.20;53.70;;;;;;20754744;28;20045;-21
2021/08/02 12:23:25;;;;;;;2.03;0.80;;;22.20;53.60;;;;;;20755424;28;20038;-21
2021/08/02 12:33:26;;;;;;;3.03;1.25;;;22.20;53.80;;;;;;20757684;28;20428;-21
2021/08/02 12:43:26;;;;;;;4.00;1.10;;;22.20;54.20;;;;;;20752924;28;20034;-21
2021/08/02 12:53:27;;;;;;;14.43;1.63;;;22.20;54.80;;;;;;20745603;28;20041;-21
2021/08/02 13:03:27;;;;;;;14.30;1.20;;;22.20;55.10;;;;;;20739150;28;20037;-21
2021/08/02 13:13:28;;;;;;;7.13;2.13;;;22.20;55.10;;;;;;20738303;28;20072;-21
2021/08/02 13:23:41;;;;;;;11.13;1.48;;;22.20;55.30;;;;;;20737418;28;20088;-21
2021/08/02 13:33:41;;;;;;;23.50;1.40;;;22.30;55.50;;;;;;20738992;28;20045;-21
2021/08/02 13:43:42;;;;;;;7.15;2.10;;;22.20;55.70;;;;;;20751573;28;20042;-19
2021/08/02 13:53:42;;;;;;;7.60;1.15;;;22.20;56.00;;;;;;20751036;28;20116;-19
2021/08/02 14:03:43;;;;;;;13.20;1.48;;;22.30;56.80;;;;;;20750395;28;20156;-20
2021/08/02 14:13:47;;;;;;;6.88;1.27;;;22.20;56.90;;;;;;20750271;28;20042;-20
2021/08/02 14:23:47;;;;;;;7.57;1.55;;;22.30;57.90;;;;;;20752101;28;20048;-21
2021/08/02 14:33:50;;;;;;;6.17;1.47;;;22.20;58.30;;;;;;20763824;28;20065;-20
2021/08/02 14:43:51;;;;;;;6.38;1.35;;;22.30;58.60;;;;;;20752660;28;20530;-19
2021/08/02 14:53:52;;;;;;;6.65;1.05;;;22.20;58.40;;;;;;20755066;28;20042;-19
2021/08/02 15:03:55;;;;;;;9.82;1.00;;;22.20;58.30;;;;;;20746107;28;20126;-19
2021/08/02 15:13:57;;;;;;;8.43;1.20;;;22.20;58.40;;;;;;20744553;28;20471;-20
2021/08/02 15:24:02;;;;;;;3.78;0.80;;;22.20;58.60;;;;;;20742049;28;20037;-21
2021/08/02 15:34:02;;;;;;;11.80;1.20;;;22.20;59.20;;;;;;20742179;28;20529;-19
2021/08/02 15:44:04;;;;;;;2.50;0.80;;;22.20;58.50;;;;;;20742424;28;20030;-19
2021/08/02 15:54:06;;;;;;;36.63;3.97;;;22.20;58.30;;;;;;20740902;28;20555;-21
2021/08/02 16:04:10;;;;;;;8.75;1.08;;;22.20;58.30;;;;;;20728511;28;20502;-20
2021/08/02 16:14:11;;;;;;;8.23;0.98;;;22.20;58.60;;;;;;20737099;28;20117;-20
2021/08/02 16:24:11;;;;;;;4.53;1.07;;;22.20;58.90;;;;;;20743246;28;20069;-21
2021/08/02 16:34:13;;;;;;;5.30;1.02;;;22.20;58.30;;;;;;20739505;28;20445;-20
2021/08/02 16:44:13;;;;;;;4.53;2.45;;;22.20;58.20;;;;;;20737216;28;20042;-20
2021/08/02 16:54:14;;;;;;;7.80;3.72;;;22.20;57.90;;;;;;20736870;28;20067;-21
2021/08/02 17:04:20;;;;;;;18.55;6.50;;;22.20;58.10;;;;;;20743285;28;20128;-20
2021/08/02 17:14:22;;;;;;;28.35;8.48;;;22.30;58.20;;;;;;20759165;28;20050;-19
2021/08/02 17:24:22;;;;;;;26.15;7.60;;;22.30;58.70;;;;;;20755647;28;20133;-20
2021/08/02 17:34:23;;;;;;;36.00;6.82;;;22.40;58.60;;;;;;20747686;28;20057;-20
2021/08/02 17:44:23;;;;;;;20.58;5.55;;;22.40;58.70;;;;;;20751655;28;20085;-20
2021/08/02 17:54:24;;;;;;;16.70;5.78;;;22.60;60.10;;;;;;20751507;28;20085;-21
2021/08/02 18:04:26;;;;;;;20.02;5.55;;;22.70;60.50;;;;;;20749818;28;20034;-20
2021/08/02 18:14:27;;;;;;;17.65;4.03;;;22.60;59.10;;;;;;20749188;28;20048;-19
2021/08/02 18:24:27;;;;;;;14.27;4.00;;;22.50;58.00;;;;;;20747165;28;20034;-20
2021/08/02 18:34:28;;;;;;;14.52;4.00;;;22.50;58.00;;;;;;20747290;28;20045;-20
2021/08/02 18:44:29;;;;;;;13.00;3.88;;;22.40;58.10;;;;;;20747106;28;20646;-20
2021/08/02 18:54:29;;;;;;;20.80;4.65;;;22.30;58.20;;;;;;20747080;28;20061;-20
2021/08/02 19:04:30;;;;;;;16.27;4.43;;;22.30;58.60;;;;;;20748155;28;20503;-21
2021/08/02 19:14:31;;;;;;;16.98;3.90;;;22.20;58.80;;;;;;20745182;28;20398;-21
2021/08/02 19:24:32;;;;;;;10.05;3.10;;;22.20;58.90;;;;;;20744643;28;20037;-21
2021/08/02 19:34:34;;;;;;;14.77;4.13;;;22.20;58.90;;;;;;20742898;28;20096;-21
2021/08/02 19:44:55;;;;;;;7.50;2.78;;;22.20;59.10;;;;;;20744014;28;20410;-21
2021/08/02 19:55:00;;;;;;;8.50;2.47;;;22.10;59.30;;;;;;20743600;28;20045;-20
2021/08/02 20:05:03;;;;;;;8.75;2.03;;;22.10;59.40;;;;;;20743477;28;20042;-20
2021/08/02 20:15:08;;;;;;;5.80;2.75;;;22.10;59.30;;;;;;20741898;28;20037;-20
2021/08/02 20:25:10;;;;;;;8.70;1.60;;;22.00;59.30;;;;;;20741995;28;20042;-20
2021/08/02 20:35:13;;;;;;;5.45;2.20;;;22.00;58.90;;;;;;20750705;28;20042;-20
2021/08/02 20:45:14;;;;;;;7.47;2.83;;;22.00;59.10;;;;;;20739493;28;20034;-20
2021/08/02 20:55:15;;;;;;;6.22;1.70;;;22.00;58.80;;;;;;20738967;28;20037;-19
2021/08/02 21:05:18;;;;;;;4.68;1.63;;;22.00;58.80;;;;;;20738454;28;20042;-20
2021/08/02 21:15:19;;;;;;;7.65;1.83;;;22.00;58.90;;;;;;20752982;28;20045;-20
2021/08/02 21:25:24;;;;;;;10.50;2.13;;;22.00;58.90;;;;;;20737231;28;20030;-20
2021/08/02 21:35:25;;;;;;;4.88;1.45;;;22.00;59.00;;;;;;20736784;28;20041;-20
2021/08/02 21:45:26;;;;;;;14.38;2.03;;;21.90;59.90;;;;;;20735890;28;20034;-20
2021/08/02 21:55:27;;;;;;;4.68;1.70;;;22.00;59.30;;;;;;20733840;28;20053;-20
2021/08/02 22:05:27;;;;;;;4.90;1.38;;;21.90;59.20;;;;;;20748932;28;20049;-20
2021/08/02 22:15:28;;;;;;;7.13;2.00;;;21.90;59.10;;;;;;20748385;28;20458;-20
2021/08/02 22:25:29;;;;;;;5.22;1.73;;;21.90;59.10;;;;;;20748439;28;20495;-21
2021/08/02 22:35:29;;;;;;;8.87;1.63;;;21.90;59.00;;;;;;20750896;28;20070;-20
2021/08/02 22:45:34;;;;;;;3.83;1.23;;;21.80;58.60;;;;;;20758397;28;20510;-20
2021/08/02 22:55:36;;;;;;;5.25;1.77;;;21.80;58.40;;;;;;20777438;28;20026;-20
2021/08/02 23:05:39;;;;;;;3.78;1.50;;;21.80;58.30;;;;;;20773163;28;20034;-20
2021/08/02 23:15:40;;;;;;;3.10;1.00;;;21.70;58.00;;;;;;20745587;28;20041;-20
2021/08/02 23:25:48;;;;;;;4.00;1.25;;;21.70;57.50;;;;;;20743358;28;20030;-21
2021/08/02 23:35:50;;;;;;;2.73;1.10;;;21.70;57.70;;;;;;20742648;28;20100;-20
2021/08/02 23:45:52;;;;;;;6.90;1.02;;;21.70;58.00;;;;;;20741619;28;20146;-20
2021/08/02 23:55:54;;;;;;;2.85;0.70;;;21.60;58.10;;;;;;20740650;28;20132;-20
